METAR Data
IDs: Format: Raw Decoded Include TAF

Data at: 1650 UTC 18 Feb 2019

METAR for:KDBQ (Dubuque Rgnl, IA, US)
Text:KDBQ 181553Z 35007KT 10SM CLR M07/M11 A3034 RMK AO2 SLP292 T10721111
Temperature: -7.2°C ( 19°F)
Dewpoint:-11.1°C ( 12°F) [RH = 74%]
Pressure (altimeter):30.34 inches Hg (1027.5 mb) [Sea level pressure: 1029.2 mb]
Winds:from the N (350 degrees) at 8 MPH (7 knots; 3.6 m/s)
Visibility:10 or more sm (16+ km)
Ceiling:at least 12,000 feet AGL
Clouds:sky clear below 12,000 feet AGL